Time;durP1;ratioP1;P1;durP2;ratioP2;P2;SDS_P1;SDS_P2;PMS_P1;PMS_P2;Temp;Humidity;BMP_temperature;BMP_pressure;BME280_temperature;BME280_humidity;BME280_pressure;Samples;Min_cycle;Max_cycle;Signal;HPM_P1;HPM_P2
2023/03/16 00:01:14;;;;;;;2.15;1.95;;;15.40;57.90;;;;;;5033128;28;20752;-66
2023/03/16 00:04:02;;;;;;;2.13;1.88;;;15.40;59.00;;;;;;5033066;28;20262;-69
2023/03/16 00:06:52;;;;;;;2.13;1.40;;;15.80;59.00;;;;;;5033159;28;20355;-67
2023/03/16 00:09:40;;;;;;;1.58;1.35;;;15.90;57.70;;;;;;5033819;28;20277;-66
2023/03/16 00:12:33;;;;;;;2.83;1.55;;;15.90;57.60;;;;;;5034751;28;20198;-65
2023/03/16 00:15:21;;;;;;;1.83;1.50;;;16.00;75.20;;;;;;5034333;28;20209;-64
2023/03/16 00:18:09;;;;;;;3.10;1.30;;;16.00;57.60;;;;;;5034717;28;20296;-65
2023/03/16 00:21:00;;;;;;;3.97;1.90;;;16.10;57.10;;;;;;5033656;28;20288;-66
2023/03/16 00:23:52;;;;;;;4.20;1.55;;;16.10;56.70;;;;;;5034064;28;20662;-66
2023/03/16 00:26:41;;;;;;;2.75;2.50;;;16.10;56.90;;;;;;5034457;28;20245;-65
2023/03/16 00:29:33;;;;;;;4.28;1.50;;;16.10;56.60;;;;;;5033745;28;20202;-66
2023/03/16 00:32:23;;;;;;;2.00;1.80;;;16.10;56.60;;;;;;5033488;28;20244;-64
2023/03/16 00:35:11;;;;;;;1.80;1.50;;;16.30;69.10;;;;;;5034051;28;20198;-64
2023/03/16 00:37:59;;;;;;;2.38;1.55;;;16.10;56.60;;;;;;5033128;28;20214;-65
2023/03/16 00:40:50;;;;;;;1.98;1.30;;;16.10;56.60;;;;;;5036565;28;20693;-66
2023/03/16 00:43:40;;;;;;;4.38;1.27;;;16.10;56.50;;;;;;5053805;28;20674;-66
2023/03/16 00:46:28;;;;;;;2.03;1.30;;;16.20;57.00;;;;;;5053445;28;20570;-65
2023/03/16 00:49:16;;;;;;;1.40;1.30;;;16.10;56.80;;;;;;5053123;28;20319;-64
2023/03/16 00:52:06;;;;;;;2.05;1.20;;;16.00;57.00;;;;;;5053214;28;20291;-64
2023/03/16 00:54:55;;;;;;;2.47;1.40;;;15.90;57.00;;;;;;5052532;28;20281;-65
2023/03/16 00:57:45;;;;;;;1.45;1.23;;;15.90;57.10;;;;;;5054706;28;20299;-65
2023/03/16 01:00:33;;;;;;;1.73;1.50;;;15.80;57.00;;;;;;5056956;28;20332;-64
2023/03/16 01:03:21;;;;;;;2.15;1.30;;;15.80;57.00;;;;;;5056963;28;20212;-66
2023/03/16 01:06:11;;;;;;;1.60;1.25;;;15.80;56.90;;;;;;5057060;28;20712;-66
2023/03/16 01:08:59;;;;;;;1.55;1.38;;;15.80;57.10;;;;;;5056135;28;20280;-65
2023/03/16 01:11:50;;;;;;;1.30;1.00;;;15.70;57.40;;;;;;5056520;28;20279;-66
2023/03/16 01:14:40;;;;;;;3.47;1.73;;;15.70;57.50;;;;;;5057226;28;20201;-66
2023/03/16 01:17:28;;;;;;;1.92;1.23;;;15.70;57.30;;;;;;5056764;28;20304;-66
2023/03/16 01:20:18;;;;;;;2.78;1.58;;;15.60;57.10;;;;;;5056340;28;20276;-65
2023/03/16 01:23:06;;;;;;;3.22;1.52;;;15.60;57.40;;;;;;5055667;28;20204;-66
2023/03/16 01:25:54;;;;;;;1.55;1.30;;;15.60;57.40;;;;;;5056239;28;20213;-64
2023/03/16 01:28:43;;;;;;;1.73;1.30;;;15.60;57.30;;;;;;5057501;28;20208;-65
2023/03/16 01:31:32;;;;;;;3.38;1.35;;;15.60;57.50;;;;;;5055925;28;20205;-66
2023/03/16 01:34:20;;;;;;;2.28;1.20;;;15.50;57.00;;;;;;5056147;28;20284;-65
2023/03/16 01:37:08;;;;;;;2.83;1.40;;;15.50;57.10;;;;;;5056149;28;20642;-64
2023/03/16 01:39:57;;;;;;;2.17;1.33;;;15.50;57.20;;;;;;5056073;28;20304;-66
2023/03/16 01:42:46;;;;;;;3.70;1.30;;;15.50;57.40;;;;;;5055086;28;20682;-65
2023/03/16 01:46:17;;;;;;;1.75;1.25;;;15.50;57.80;;;;;;5056328;28;20657;-64
2023/03/16 01:49:12;;;;;;;1.20;1.10;;;15.50;57.70;;;;;;5056449;28;20281;-66
2023/03/16 01:52:04;;;;;;;2.88;1.10;;;15.50;57.40;;;;;;5056263;28;20680;-66
2023/03/16 01:54:55;;;;;;;1.98;1.40;;;15.50;57.80;;;;;;5055665;28;20237;-64
2023/03/16 01:57:46;;;;;;;1.85;1.38;;;15.50;57.60;;;;;;5056712;28;20203;-69
2023/03/16 02:00:34;;;;;;;2.40;1.48;;;15.50;57.40;;;;;;5056217;28;20261;-69
2023/03/16 02:03:22;;;;;;;2.22;1.48;;;15.50;57.10;;;;;;5056080;28;20205;-69
2023/03/16 02:06:17;;;;;;;1.38;1.25;;;15.50;57.40;;;;;;5056066;28;20221;-68
2023/03/16 02:09:06;;;;;;;2.42;1.40;;;15.40;57.40;;;;;;5055259;28;20233;-68
2023/03/16 02:11:54;;;;;;;2.10;1.23;;;15.40;57.60;;;;;;5055259;28;20201;-68
2023/03/16 02:14:43;;;;;;;1.77;1.67;;;15.40;57.60;;;;;;5055906;28;20676;-68
2023/03/16 02:17:33;;;;;;;2.40;1.50;;;15.40;57.30;;;;;;5055682;28;20304;-69
2023/03/16 02:20:33;;;;;;;2.95;1.58;;;15.40;57.40;;;;;;5055108;28;20310;-69
2023/03/16 02:23:25;;;;;;;2.05;1.42;;;15.40;57.20;;;;;;5055829;28;20259;-68
2023/03/16 02:26:22;;;;;;;2.53;1.35;;;15.40;57.20;;;;;;5054513;28;20327;-68
2023/03/16 02:29:36;;;;;;;2.25;1.92;;;15.40;57.10;;;;;;5054567;28;20225;-69
2023/03/16 02:32:29;;;;;;;3.38;1.60;;;15.40;57.10;;;;;;5044034;28;20282;-69
2023/03/16 02:35:17;;;;;;;1.98;1.48;;;15.30;75.30;;;;;;5042474;28;20572;-68
2023/03/16 02:38:06;;;;;;;1.77;1.42;;;15.40;58.00;;;;;;5036086;28;20252;-68
2023/03/16 02:40:59;;;;;;;3.30;1.48;;;15.30;57.50;;;;;;5035940;28;20272;-68
2023/03/16 02:43:52;;;;;;;2.35;1.23;;;15.30;57.80;;;;;;5035342;28;20198;-69
2023/03/16 02:46:42;;;;;;;1.77;1.40;;;15.30;57.60;;;;;;5035552;28;20300;-69
2023/03/16 02:49:36;;;;;;;2.05;1.48;;;15.40;57.80;;;;;;5035810;28;20229;-69
2023/03/16 02:52:25;;;;;;;3.75;1.70;;;15.40;57.30;;;;;;5035180;28;20339;-69
2023/03/16 02:55:13;;;;;;;2.35;1.05;;;15.50;75.20;;;;;;5034825;28;20277;-68
2023/03/16 02:58:01;;;;;;;1.75;1.15;;;15.40;57.00;;;;;;5034579;28;20234;-69
2023/03/16 03:00:50;;;;;;;1.80;1.42;;;15.50;57.40;;;;;;5034544;28;20217;-69
2023/03/16 03:03:38;;;;;;;3.00;1.48;;;15.40;57.20;;;;;;5034756;28;20678;-68
2023/03/16 03:06:28;;;;;;;1.27;1.17;;;15.40;57.20;;;;;;5035269;28;20344;-68
2023/03/16 03:09:16;;;;;;;3.13;1.33;;;15.50;57.10;;;;;;5034499;28;20281;-67
2023/03/16 03:12:04;;;;;;;1.98;1.27;;;15.50;56.80;;;;;;5034310;28;20703;-68
2023/03/16 03:14:53;;;;;;;2.25;1.40;;;15.50;56.80;;;;;;5035268;28;20288;-67
2023/03/16 03:17:41;;;;;;;1.35;1.25;;;15.50;56.60;;;;;;5034629;28;20198;-69
2023/03/16 03:20:30;;;;;;;2.58;1.30;;;15.50;56.60;;;;;;5034766;28;20237;-68
2023/03/16 03:23:19;;;;;;;2.17;1.55;;;15.50;56.60;;;;;;5034112;28;20632;-69
2023/03/16 03:26:07;;;;;;;5.50;3.85;;;15.50;56.60;;;;;;5034788;28;20230;-68
2023/03/16 03:28:55;;;;;;;5.82;3.97;;;15.50;56.60;;;;;;5034407;28;20205;-69
2023/03/16 03:31:43;;;;;;;4.07;3.13;;;15.40;56.70;;;;;;5034380;28;20202;-68
2023/03/16 03:34:32;;;;;;;1.63;1.50;;;15.40;56.40;;;;;;5034345;28;20204;-69
2023/03/16 03:37:20;;;;;;;1.60;1.40;;;15.40;56.40;;;;;;5034020;28;20214;-69
2023/03/16 03:40:12;;;;;;;3.70;1.75;;;15.50;57.00;;;;;;5034234;28;20277;-68
2023/03/16 03:43:01;;;;;;;2.47;1.40;;;15.30;57.00;;;;;;5033413;28;20226;-69
2023/03/16 03:45:50;;;;;;;3.03;1.90;;;15.50;56.70;;;;;;5034320;28;20644;-67
2023/03/16 03:48:38;;;;;;;2.38;2.17;;;15.30;56.70;;;;;;5033903;28;20205;-69
2023/03/16 03:51:26;;;;;;;2.05;1.60;;;15.20;56.90;;;;;;5033930;28;20212;-69
2023/03/16 03:54:14;;;;;;;3.58;1.70;;;15.20;57.60;;;;;;5033088;28;20284;-68
2023/03/16 03:57:04;;;;;;;2.75;1.95;;;15.30;57.50;;;;;;5034142;28;20394;-68
2023/03/16 03:59:52;;;;;;;1.42;1.33;;;15.20;57.10;;;;;;5033751;28;20776;-68
2023/03/16 04:02:40;;;;;;;2.35;1.42;;;15.30;57.20;;;;;;5033887;28;20206;-67
2023/03/16 04:05:29;;;;;;;2.25;1.65;;;15.50;57.10;;;;;;5033959;28;20279;-68
2023/03/16 04:08:17;;;;;;;2.40;1.67;;;15.50;56.90;;;;;;5034554;28;20212;-68
2023/03/16 04:11:05;;;;;;;2.42;1.58;;;15.40;56.40;;;;;;5033117;28;20206;-70
2023/03/16 04:13:54;;;;;;;1.77;1.27;;;15.50;56.50;;;;;;5032396;28;20198;-69
2023/03/16 04:16:43;;;;;;;2.25;1.35;;;15.50;56.60;;;;;;5034108;28;20708;-68
2023/03/16 04:19:31;;;;;;;2.67;1.58;;;15.50;56.20;;;;;;5033400;28;20705;-69
2023/03/16 04:22:22;;;;;;;2.47;1.55;;;15.50;56.10;;;;;;5033175;28;20230;-68
2023/03/16 04:25:10;;;;;;;1.90;1.42;;;15.70;73.10;;;;;;5032770;28;20242;-68
2023/03/16 04:27:58;;;;;;;4.38;2.20;;;15.80;56.80;;;;;;5033292;28;20289;-68
2023/03/16 04:30:48;;;;;;;2.03;1.17;;;15.50;56.30;;;;;;5043996;28;20328;-69
2023/03/16 04:33:38;;;;;;;1.90;1.20;;;15.60;56.40;;;;;;5056482;28;20259;-69
2023/03/16 04:36:26;;;;;;;2.72;1.58;;;15.40;56.50;;;;;;5057820;28;20232;-69
2023/03/16 04:39:14;;;;;;;4.68;1.98;;;15.50;56.60;;;;;;5057489;28;20280;-68
2023/03/16 04:42:02;;;;;;;2.10;1.35;;;15.50;56.60;;;;;;5043704;28;20226;-69
2023/03/16 04:44:50;;;;;;;3.25;1.65;;;15.50;56.40;;;;;;5037207;28;20757;-68
2023/03/16 04:47:40;;;;;;;1.95;1.60;;;15.20;56.60;;;;;;5036929;28;20305;-69
2023/03/16 04:50:28;;;;;;;1.90;1.30;;;14.20;55.80;;;;;;5037526;28;20683;-68
2023/03/16 04:53:17;;;;;;;1.30;1.20;;;15.30;56.70;;;;;;5037302;28;20194;-68
2023/03/16 04:56:07;;;;;;;2.03;1.33;;;15.30;56.70;;;;;;5038118;28;20360;-68
2023/03/16 04:58:55;;;;;;;2.78;1.30;;;15.30;56.80;;;;;;5036569;28;20198;-69
2023/03/16 05:01:44;;;;;;;1.77;1.55;;;15.20;56.60;;;;;;5036838;28;20608;-69
2023/03/16 05:04:34;;;;;;;1.55;1.27;;;15.20;56.70;;;;;;5037753;28;20217;-69
2023/03/16 05:07:23;;;;;;;2.88;1.60;;;15.20;56.30;;;;;;5037892;28;20744;-68
2023/03/16 05:10:13;;;;;;;1.40;1.30;;;15.20;56.50;;;;;;5035966;28;20245;-68
2023/03/16 05:13:02;;;;;;;1.70;1.33;;;15.10;56.50;;;;;;5036516;28;20216;-69
2023/03/16 05:15:52;;;;;;;3.75;1.40;;;15.10;57.00;;;;;;5036590;28;20218;-68
2023/03/16 05:18:40;;;;;;;2.10;1.10;;;15.10;57.00;;;;;;5036341;28;20193;-68
2023/03/16 05:21:30;;;;;;;4.72;1.60;;;15.10;56.80;;;;;;5036923;28;20333;-70
2023/03/16 05:24:19;;;;;;;2.97;1.33;;;15.30;57.10;;;;;;5037391;28;20221;-68
2023/03/16 05:27:07;;;;;;;2.08;1.48;;;15.10;56.90;;;;;;5036459;28;20296;-68
2023/03/16 05:29:55;;;;;;;2.13;1.30;;;15.20;56.60;;;;;;5036377;28;20194;-68
2023/03/16 05:32:43;;;;;;;4.40;1.67;;;15.10;56.70;;;;;;5036607;28;20344;-68
2023/03/16 05:35:31;;;;;;;3.30;1.48;;;15.10;56.50;;;;;;5036209;28;20715;-69
2023/03/16 05:38:21;;;;;;;2.20;1.20;;;15.10;56.50;;;;;;5036522;28;20213;-68
2023/03/16 05:41:09;;;;;;;1.50;1.20;;;15.20;56.50;;;;;;5042466;28;20566;-70
2023/03/16 05:43:57;;;;;;;1.92;1.73;;;15.20;56.60;;;;;;5055381;28;20678;-68
2023/03/16 05:46:45;;;;;;;3.10;1.65;;;15.20;56.60;;;;;;5056030;28;20763;-69
2023/03/16 05:49:34;;;;;;;4.75;1.50;;;15.20;56.60;;;;;;5056706;28;20229;-68
2023/03/16 05:52:24;;;;;;;1.70;1.58;;;15.10;56.50;;;;;;5055666;28;20197;-69
2023/03/16 05:55:15;;;;;;;14.48;6.55;;;14.90;68.80;;;;;;5055371;28;20201;-68
2023/03/16 05:58:03;;;;;;;4.75;3.10;;;15.20;56.50;;;;;;5055448;28;20291;-68
2023/03/16 06:00:54;;;;;;;3.35;2.58;;;15.10;57.10;;;;;;5055516;28;20275;-69
2023/03/16 06:03:42;;;;;;;3.28;1.75;;;15.40;56.40;;;;;;5055518;28;20198;-68
2023/03/16 06:06:30;;;;;;;3.45;1.40;;;15.30;56.40;;;;;;5055748;28;20221;-69
2023/03/16 06:09:18;;;;;;;4.72;2.72;;;15.10;56.50;;;;;;5055888;28;20292;-68
2023/03/16 06:12:09;;;;;;;8.82;5.45;;;15.10;56.40;;;;;;5055251;28;20507;-68
2023/03/16 06:14:57;;;;;;;21.42;9.43;;;15.10;56.40;;;;;;5054310;28;20277;-69
2023/03/16 06:17:45;;;;;;;17.52;7.63;;;15.10;56.40;;;;;;5055445;28;20630;-69
2023/03/16 06:20:33;;;;;;;38.00;7.35;;;15.00;56.90;;;;;;5055825;28;20661;-69
2023/03/16 06:23:21;;;;;;;551.17;78.45;;;15.00;56.90;;;;;;5055898;28;20201;-69
2023/03/16 06:26:09;;;;;;;71.28;11.02;;;15.10;58.10;;;;;;5055502;28;20300;-69
2023/03/16 06:28:58;;;;;;;52.95;7.10;;;15.20;57.90;;;;;;5055981;28;20568;-68
2023/03/16 06:31:47;;;;;;;100.45;14.80;;;15.40;57.80;;;;;;5054749;28;20193;-69
2023/03/16 06:34:35;;;;;;;44.78;6.88;;;15.50;57.50;;;;;;5055714;28;20334;-68
2023/03/16 06:37:25;;;;;;;665.78;81.43;;;15.50;56.90;;;;;;5047425;28;20222;-68
2023/03/16 06:40:13;;;;;;;336.10;40.35;;;15.80;56.60;;;;;;5045465;28;20189;-68
2023/03/16 06:43:01;;;;;;;243.60;35.13;;;15.70;56.00;;;;;;5039652;28;20206;-69
2023/03/16 06:45:51;;;;;;;151.70;23.20;;;15.80;55.90;;;;;;5045037;28;20218;-67
2023/03/16 06:48:40;;;;;;;53.97;9.75;;;15.80;55.70;;;;;;5040134;28;20244;-67
2023/03/16 06:51:28;;;;;;;28.70;5.60;;;15.80;55.10;;;;;;5038813;28;20208;-68
2023/03/16 06:54:16;;;;;;;7.43;3.22;;;15.80;55.20;;;;;;5038620;28;20280;-68
2023/03/16 06:57:04;;;;;;;10.63;2.95;;;15.90;55.40;;;;;;5052171;28;20248;-68
2023/03/16 06:59:52;;;;;;;20.00;3.60;;;15.80;55.30;;;;;;5053910;28;20636;-68
2023/03/16 07:02:42;;;;;;;23.67;10.32;;;15.80;55.20;;;;;;5047731;28;20308;-69
2023/03/16 07:05:30;;;;;;;6.45;4.75;;;15.80;55.30;;;;;;5033899;28;20224;-69
2023/03/16 07:08:19;;;;;;;10.77;5.13;;;15.80;55.10;;;;;;5048395;28;20209;-70
2023/03/16 07:11:07;;;;;;;7.32;3.42;;;15.70;55.10;;;;;;5054117;28;20225;-68
2023/03/16 07:13:55;;;;;;;6.20;1.77;;;15.80;55.20;;;;;;5054133;28;20707;-68
2023/03/16 07:16:43;;;;;;;6.65;1.63;;;15.90;54.90;;;;;;5045930;28;20287;-69
2023/03/16 07:19:32;;;;;;;11.73;2.30;;;15.90;55.40;;;;;;5035895;28;20304;-69
2023/03/16 07:22:21;;;;;;;44.92;8.43;;;15.70;54.80;;;;;;5037939;28;20232;-69
2023/03/16 07:25:10;;;;;;;33.58;5.70;;;15.90;67.50;;;;;;5042527;28;20202;-69
2023/03/16 07:27:58;;;;;;;45.83;9.98;;;15.70;55.10;;;;;;5053519;28;20197;-68
2023/03/16 07:30:47;;;;;;;59.10;8.73;;;15.70;55.50;;;;;;5036752;28;20280;-68
2023/03/16 07:33:50;;;;;;;42.75;11.63;;;15.60;55.20;;;;;;5048617;28;20220;-68
2023/03/16 07:36:40;;;;;;;60.55;11.52;;;15.60;55.40;;;;;;5034955;28;20300;-68
2023/03/16 07:39:28;;;;;;;470.95;79.03;;;15.50;55.30;;;;;;5035441;28;20198;-70
2023/03/16 07:42:16;;;;;;;52.35;10.95;;;15.50;55.50;;;;;;5032903;28;20221;-68
2023/03/16 07:45:06;;;;;;;72.93;11.27;;;15.50;56.10;;;;;;5034576;28;20296;-68
2023/03/16 07:47:54;;;;;;;32.47;5.25;;;15.50;56.60;;;;;;5034171;28;20722;-69
2023/03/16 07:50:43;;;;;;;183.02;25.30;;;15.50;57.10;;;;;;5051010;28;20211;-69
2023/03/16 07:53:32;;;;;;;79.80;14.32;;;15.60;57.30;;;;;;5042805;28;20260;-65
2023/03/16 07:56:21;;;;;;;35.95;6.72;;;15.70;57.20;;;;;;5049886;28;20252;-64
2023/03/16 07:59:09;;;;;;;16.38;4.05;;;15.80;57.00;;;;;;5045203;28;20348;-64
2023/03/16 08:01:57;;;;;;;13.73;3.33;;;15.90;56.70;;;;;;5043824;28;20273;-65
2023/03/16 08:04:45;;;;;;;12.05;2.80;;;15.90;56.40;;;;;;5053181;28;20686;-66
2023/03/16 08:07:33;;;;;;;12.13;2.95;;;16.00;56.30;;;;;;5056574;28;20201;-65
2023/03/16 08:10:23;;;;;;;6.55;1.90;;;16.10;56.60;;;;;;5060321;28;20323;-66
2023/03/16 08:13:11;;;;;;;4.45;1.75;;;16.20;56.00;;;;;;5060014;28;20262;-66
2023/03/16 08:16:00;;;;;;;12.05;3.08;;;16.20;55.30;;;;;;5060068;28;20221;-64
2023/03/16 08:18:50;;;;;;;4.03;1.75;;;16.30;55.50;;;;;;5060292;28;20262;-64
2023/03/16 08:21:39;;;;;;;4.38;1.67;;;16.30;54.70;;;;;;5060427;28;20229;-66
2023/03/16 08:24:47;;;;;;;5.38;2.53;;;16.40;54.90;;;;;;5060576;28;20200;-66
2023/03/16 08:27:37;;;;;;;6.03;1.33;;;16.50;54.20;;;;;;5060245;28;20213;-66
2023/03/16 08:30:25;;;;;;;5.85;2.47;;;16.50;54.40;;;;;;5060331;28;20342;-64
2023/03/16 08:33:16;;;;;;;7.57;2.38;;;16.40;54.00;;;;;;5058415;28;20252;-65
2023/03/16 08:36:06;;;;;;;4.18;1.83;;;15.50;53.70;;;;;;5060573;28;20221;-65
2023/03/16 08:38:54;;;;;;;4.13;1.40;;;16.40;54.50;;;;;;5055998;28;20202;-66
2023/03/16 08:41:55;;;;;;;4.50;1.88;;;16.30;54.90;;;;;;5048621;28;20217;-65
2023/03/16 08:44:46;;;;;;;5.15;1.52;;;16.40;57.10;;;;;;5056906;28;20276;-65
2023/03/16 08:47:34;;;;;;;4.53;1.95;;;16.50;57.70;;;;;;5059258;28;20197;-67
2023/03/16 08:50:22;;;;;;;5.53;1.60;;;16.70;57.80;;;;;;5060001;28;20197;-65
2023/03/16 08:53:12;;;;;;;6.18;1.85;;;16.80;57.70;;;;;;5059688;28;20288;-66
2023/03/16 08:56:05;;;;;;;4.78;1.60;;;17.00;57.50;;;;;;5060578;28;20225;-63
2023/03/16 08:58:53;;;;;;;4.65;2.00;;;17.30;57.60;;;;;;5061007;28;20229;-63
2023/03/16 09:01:42;;;;;;;3.45;1.65;;;17.50;57.10;;;;;;5060234;28;20682;-65
2023/03/16 09:04:31;;;;;;;2.88;1.30;;;17.60;56.70;;;;;;5059464;28;20678;-65
2023/03/16 09:07:19;;;;;;;6.90;1.92;;;17.70;56.50;;;;;;5060146;28;20606;-64
2023/03/16 09:10:12;;;;;;;2.78;1.38;;;17.90;56.40;;;;;;5040774;28;20250;-65
2023/03/16 09:13:00;;;;;;;6.25;2.70;;;18.00;56.60;;;;;;5048231;28;20639;-66
2023/03/16 09:15:48;;;;;;;7.50;1.98;;;18.10;56.30;;;;;;5058715;28;20225;-65
2023/03/16 09:18:38;;;;;;;4.63;2.22;;;18.10;56.20;;;;;;5058319;28;20273;-66
2023/03/16 09:21:27;;;;;;;5.88;3.58;;;18.20;56.00;;;;;;5044456;28;20670;-66
2023/03/16 09:24:15;;;;;;;8.93;3.55;;;18.30;55.80;;;;;;5046478;28;20248;-66
2023/03/16 09:27:04;;;;;;;9.63;4.70;;;18.40;55.90;;;;;;5047432;28;20239;-65
2023/03/16 09:29:55;;;;;;;6.13;2.72;;;18.50;55.60;;;;;;5054064;28;20201;-67
2023/03/16 09:32:43;;;;;;;5.68;2.95;;;18.60;55.40;;;;;;5053799;28;20205;-66
2023/03/16 09:35:33;;;;;;;5.28;3.85;;;18.70;55.40;;;;;;5054355;28;20799;-69
2023/03/16 09:38:25;;;;;;;6.72;3.08;;;18.80;55.20;;;;;;5046002;28;20586;-68
2023/03/16 09:41:34;;;;;;;4.25;2.28;;;18.90;55.20;;;;;;5044063;28;20723;-67
2023/03/16 09:44:31;;;;;;;6.47;2.47;;;19.00;55.10;;;;;;5044311;28;20206;-71
2023/03/16 09:47:25;;;;;;;3.65;1.20;;;19.00;54.90;;;;;;5043346;28;20261;-67
2023/03/16 09:50:22;;;;;;;1.75;1.27;;;19.00;54.60;;;;;;5033420;28;20584;-69
2023/03/16 09:53:22;;;;;;;2.53;1.73;;;19.10;54.40;;;;;;5033201;28;20679;-69
2023/03/16 09:56:15;;;;;;;5.82;1.38;;;19.10;54.30;;;;;;5033313;28;20287;-66
2023/03/16 09:59:10;;;;;;;4.63;1.67;;;19.10;54.30;;;;;;5033378;28;20289;-67
2023/03/16 10:02:29;;;;;;;2.20;1.58;;;19.10;54.00;;;;;;5032651;28;20213;-70
2023/03/16 10:05:21;;;;;;;3.35;1.48;;;19.20;70.20;;;;;;5039194;28;20198;-66
2023/03/16 10:08:17;;;;;;;3.25;1.30;;;19.10;54.50;;;;;;5044122;28;20231;-68
2023/03/16 10:11:28;;;;;;;9.70;3.35;;;19.20;54.60;;;;;;5043916;28;20194;-67
2023/03/16 10:14:25;;;;;;;8.48;3.63;;;19.20;54.30;;;;;;5043142;28;20193;-71
2023/03/16 10:17:16;;;;;;;8.43;2.85;;;19.30;54.30;;;;;;5049319;28;20612;-66
2023/03/16 10:20:07;;;;;;;6.80;3.05;;;19.40;54.10;;;;;;5052392;28;20309;-69
2023/03/16 10:22:58;;;;;;;5.90;2.47;;;19.40;53.80;;;;;;5040763;28;20302;-66
2023/03/16 10:25:50;;;;;;;5.57;1.90;;;19.40;54.00;;;;;;5042775;28;20323;-66
2023/03/16 10:28:38;;;;;;;4.95;1.63;;;19.40;54.10;;;;;;5034299;28;20214;-67
2023/03/16 10:31:27;;;;;;;3.33;1.58;;;19.50;54.10;;;;;;5051766;28;20293;-68
2023/03/16 10:34:15;;;;;;;4.65;1.75;;;19.50;53.90;;;;;;5052442;28;20194;-69
2023/03/16 10:37:07;;;;;;;4.70;1.58;;;19.50;54.20;;;;;;5041685;28;20217;-70
2023/03/16 10:39:56;;;;;;;1.70;1.23;;;19.50;53.80;;;;;;5052066;28;20255;-70
2023/03/16 10:42:45;;;;;;;3.30;2.00;;;19.50;53.90;;;;;;5032994;28;20348;-65
2023/03/16 10:45:35;;;;;;;1.67;1.20;;;19.50;53.30;;;;;;5037723;28;20221;-68
2023/03/16 10:48:26;;;;;;;3.50;1.67;;;19.50;53.80;;;;;;5032819;28;20329;-69
2023/03/16 10:51:17;;;;;;;4.00;1.50;;;19.50;53.70;;;;;;5031457;28;20634;-70
2023/03/16 10:54:13;;;;;;;2.83;1.65;;;19.60;53.90;;;;;;5041040;28;20205;-66
2023/03/16 10:57:14;;;;;;;6.10;1.50;;;19.60;53.90;;;;;;5042124;28;20237;-68
2023/03/16 11:00:11;;;;;;;5.45;1.80;;;19.70;53.60;;;;;;5046588;28;20207;-67
2023/03/16 11:03:01;;;;;;;2.97;1.13;;;19.70;53.60;;;;;;5052419;28;20224;-69
2023/03/16 11:05:57;;;;;;;2.13;1.70;;;19.70;53.50;;;;;;5051086;28;20229;-69
2023/03/16 11:08:46;;;;;;;3.00;1.10;;;19.70;53.60;;;;;;5051607;28;20201;-69
2023/03/16 11:11:37;;;;;;;5.38;1.48;;;19.70;53.50;;;;;;5032091;28;20281;-70
2023/03/16 11:14:29;;;;;;;2.88;1.17;;;19.70;53.50;;;;;;5031889;28;20284;-68
2023/03/16 11:17:27;;;;;;;3.10;1.33;;;19.60;53.50;;;;;;5031908;28;20364;-70
2023/03/16 11:20:18;;;;;;;8.05;1.98;;;19.60;53.40;;;;;;5031699;28;20270;-71
2023/03/16 11:23:11;;;;;;;8.63;1.48;;;19.60;53.30;;;;;;5032054;28;20221;-67
2023/03/16 11:26:03;;;;;;;4.32;2.20;;;19.50;53.30;;;;;;5042332;28;20319;-71
2023/03/16 11:29:00;;;;;;;2.60;1.50;;;19.50;53.40;;;;;;5040748;28;20217;-70
2023/03/16 11:31:54;;;;;;;3.85;1.50;;;19.60;53.60;;;;;;5039911;28;20305;-67
2023/03/16 11:34:45;;;;;;;2.67;1.88;;;19.70;53.40;;;;;;5048531;28;20198;-70
2023/03/16 11:37:44;;;;;;;5.03;1.30;;;19.70;53.60;;;;;;5051163;28;20302;-71
2023/03/16 11:40:43;;;;;;;3.47;1.20;;;19.70;53.70;;;;;;5042041;28;20254;-67
2023/03/16 11:44:01;;;;;;;1.50;1.02;;;19.80;53.30;;;;;;5048769;28;20257;-67
2023/03/16 11:46:55;;;;;;;5.13;2.40;;;19.80;53.10;;;;;;5019222;28;20232;-68
2023/03/16 11:49:57;;;;;;;4.97;1.80;;;19.80;53.30;;;;;;5044562;28;20197;-64
2023/03/16 11:52:56;;;;;;;3.47;1.50;;;19.80;53.30;;;;;;5032626;28;20205;-71
2023/03/16 11:55:54;;;;;;;1.77;1.10;;;19.80;53.20;;;;;;5051051;28;20225;-71
2023/03/16 11:59:18;;;;;;;2.45;1.55;;;19.80;53.00;;;;;;5051326;28;20628;-69
2023/03/16 12:02:44;;;;;;;3.65;1.40;;;19.80;52.90;;;;;;5030791;28;20193;-71
2023/03/16 12:05:46;;;;;;;3.05;1.33;;;19.80;53.60;;;;;;5031849;28;20214;-69
2023/03/16 12:08:53;;;;;;;2.08;1.15;;;19.60;67.80;;;;;;5050956;28;20693;-70
2023/03/16 12:11:49;;;;;;;1.60;1.27;;;19.80;52.80;;;;;;5051312;28;20398;-66
2023/03/16 12:14:41;;;;;;;4.20;1.30;;;19.90;53.10;;;;;;5051679;28;20277;-69
2023/03/16 12:17:34;;;;;;;8.82;4.32;;;19.80;53.30;;;;;;5049590;28;20220;-69
2023/03/16 12:20:26;;;;;;;9.63;4.28;;;19.80;54.00;;;;;;5051671;28;20193;-67
2023/03/16 12:23:21;;;;;;;5.78;2.78;;;19.80;53.10;;;;;;5050681;28;20224;-67
2023/03/16 12:26:11;;;;;;;3.72;2.13;;;19.80;52.90;;;;;;5051363;28;20220;-69
2023/03/16 12:29:04;;;;;;;3.40;1.85;;;19.90;53.00;;;;;;5043213;28;20194;-67
2023/03/16 12:31:59;;;;;;;9.25;1.77;;;19.90;52.90;;;;;;5037523;28;20267;-66
2023/03/16 12:34:51;;;;;;;2.78;1.23;;;19.80;53.50;;;;;;5042071;28;20228;-67
2023/03/16 12:37:44;;;;;;;3.35;1.23;;;19.90;53.30;;;;;;5030876;28;20297;-66
2023/03/16 12:40:43;;;;;;;9.57;1.30;;;19.90;52.80;;;;;;5030263;28;20679;-68
2023/03/16 12:43:42;;;;;;;2.38;0.98;;;20.00;53.00;;;;;;5030541;28;20226;-68
2023/03/16 12:46:42;;;;;;;17.60;7.45;;;20.00;53.00;;;;;;5031287;28;20320;-68
2023/03/16 12:49:32;;;;;;;8.57;3.17;;;20.00;52.90;;;;;;5031149;28;20199;-64
2023/03/16 12:52:21;;;;;;;8.90;3.92;;;20.00;53.10;;;;;;5047490;28;20251;-68
2023/03/16 12:55:14;;;;;;;5.32;2.00;;;20.30;66.90;;;;;;5053680;28;20239;-67
2023/03/16 12:58:06;;;;;;;6.28;2.20;;;20.10;52.90;;;;;;5054553;28;20201;-71
2023/03/16 13:00:58;;;;;;;2.40;1.45;;;20.10;53.10;;;;;;5053958;28;20258;-69
2023/03/16 13:03:49;;;;;;;4.05;1.48;;;20.10;52.80;;;;;;5056025;28;20702;-68
2023/03/16 13:06:37;;;;;;;2.95;1.20;;;20.10;52.90;;;;;;5057356;28;20262;-67
2023/03/16 13:09:30;;;;;;;8.30;3.85;;;20.00;52.90;;;;;;5043450;28;20191;-67
2023/03/16 13:12:24;;;;;;;8.90;6.05;;;20.00;53.00;;;;;;5044435;28;20194;-69
2023/03/16 13:15:27;;;;;;;4.47;2.47;;;19.90;62.30;;;;;;5044363;28;20279;-68
2023/03/16 13:18:24;;;;;;;3.65;1.90;;;20.00;52.80;;;;;;5044685;28;20271;-67
2023/03/16 13:21:18;;;;;;;5.40;1.67;;;19.90;52.60;;;;;;5043525;28;20243;-68
2023/03/16 13:24:21;;;;;;;2.97;1.10;;;19.90;52.90;;;;;;5050899;28;20229;-66
2023/03/16 13:27:22;;;;;;;2.83;1.23;;;19.90;53.30;;;;;;5047137;28;20709;-67
2023/03/16 13:30:18;;;;;;;2.53;1.30;;;20.00;53.00;;;;;;5040868;28;20190;-69
2023/03/16 13:33:19;;;;;;;1.40;0.90;;;20.10;53.00;;;;;;5044614;28;20281;-66
2023/03/16 13:36:07;;;;;;;2.58;0.90;;;20.10;53.10;;;;;;5043207;28;20587;-68
2023/03/16 13:39:02;;;;;;;1.35;0.80;;;20.20;52.90;;;;;;5043356;28;20198;-66
2023/03/16 13:41:59;;;;;;;3.45;1.05;;;20.20;53.00;;;;;;5042519;28;20204;-67
2023/03/16 13:44:48;;;;;;;1.40;0.88;;;20.30;52.90;;;;;;5054016;28;20252;-66
2023/03/16 13:47:36;;;;;;;2.20;1.40;;;20.40;52.80;;;;;;5053655;28;20311;-66
2023/03/16 13:50:26;;;;;;;7.88;4.10;;;20.40;52.60;;;;;;5052978;28;20200;-70
2023/03/16 13:53:19;;;;;;;6.63;3.15;;;20.30;52.50;;;;;;5052726;28;20201;-66
2023/03/16 13:56:07;;;;;;;3.20;2.47;;;20.30;52.70;;;;;;5053823;28;20225;-69
2023/03/16 13:58:58;;;;;;;5.15;3.03;;;20.30;52.70;;;;;;5053816;28;20197;-71
2023/03/16 14:01:48;;;;;;;7.35;4.65;;;20.30;52.60;;;;;;5053537;28;20686;-71
2023/03/16 14:04:36;;;;;;;8.45;5.03;;;20.30;52.40;;;;;;5052694;28;20217;-71
2023/03/16 14:07:26;;;;;;;8.38;3.65;;;20.30;52.70;;;;;;5053170;28;20221;-70
2023/03/16 14:10:16;;;;;;;3.70;1.80;;;20.30;52.70;;;;;;5051546;28;20558;-69
2023/03/16 14:13:09;;;;;;;2.20;1.77;;;20.20;53.00;;;;;;5040506;28;20210;-71
2023/03/16 14:16:00;;;;;;;4.88;1.75;;;20.20;52.70;;;;;;5044343;28;20308;-74
2023/03/16 14:18:53;;;;;;;7.50;1.73;;;20.20;52.40;;;;;;5044281;28;20205;-69
2023/03/16 14:21:44;;;;;;;4.00;0.95;;;18.90;51.60;;;;;;5035506;28;20237;-71
2023/03/16 14:24:37;;;;;;;1.77;0.90;;;20.30;52.90;;;;;;5039096;28;20607;-70
2023/03/16 14:27:29;;;;;;;10.00;1.88;;;20.30;53.10;;;;;;5044216;28;20296;-70
2023/03/16 14:30:23;;;;;;;2.33;1.02;;;20.30;52.80;;;;;;5041352;28;20202;-70
2023/03/16 14:33:27;;;;;;;3.45;1.23;;;20.40;52.90;;;;;;5041005;28;20321;-68
2023/03/16 14:36:16;;;;;;;2.13;1.00;;;20.40;52.80;;;;;;5032692;28;20253;-71
2023/03/16 14:39:13;;;;;;;2.38;0.85;;;20.40;52.60;;;;;;5033230;28;20198;-70
2023/03/16 14:42:05;;;;;;;2.42;1.10;;;20.40;52.70;;;;;;5038006;28;20205;-71
2023/03/16 14:44:54;;;;;;;1.70;0.80;;;20.50;52.60;;;;;;5041278;28;20225;-69
2023/03/16 14:47:44;;;;;;;1.50;0.80;;;20.50;52.50;;;;;;5045555;28;20205;-70
2023/03/16 14:50:33;;;;;;;1.67;0.80;;;20.50;52.50;;;;;;5053401;28;20251;-73